sensor_id;sensor_type;location;lat;lon;timestamp;P1;durP1;ratioP1;P2;durP2;ratioP2
36475;SDS011;56615;42.682;23.364;2022-09-13T00:00:29;6.22;;;3.22;;
36475;SDS011;56615;42.682;23.364;2022-09-13T00:02:54;5.28;;;3.40;;
36475;SDS011;56615;42.682;23.364;2022-09-13T00:05:19;6.95;;;3.63;;
36475;SDS011;56615;42.682;23.364;2022-09-13T00:07:45;6.18;;;3.80;;
36475;SDS011;56615;42.682;23.364;2022-09-13T00:10:10;5.18;;;3.70;;
36475;SDS011;56615;42.682;23.364;2022-09-13T00:12:36;7.82;;;3.88;;
36475;SDS011;56615;42.682;23.364;2022-09-13T00:15:01;5.82;;;3.42;;
36475;SDS011;56615;42.682;23.364;2022-09-13T00:17:27;7.78;;;3.67;;
36475;SDS011;56615;42.682;23.364;2022-09-13T00:19:53;5.35;;;3.35;;
36475;SDS011;56615;42.682;23.364;2022-09-13T00:22:18;7.10;;;3.72;;
36475;SDS011;56615;42.682;23.364;2022-09-13T00:24:43;6.22;;;3.83;;
36475;SDS011;56615;42.682;23.364;2022-09-13T00:27:09;5.93;;;3.80;;
36475;SDS011;56615;42.682;23.364;2022-09-13T00:29:35;7.18;;;3.80;;
36475;SDS011;56615;42.682;23.364;2022-09-13T00:32:00;5.30;;;3.67;;
36475;SDS011;56615;42.682;23.364;2022-09-13T00:34:26;9.48;;;3.72;;
36475;SDS011;56615;42.682;23.364;2022-09-13T00:36:51;6.10;;;3.78;;
36475;SDS011;56615;42.682;23.364;2022-09-13T00:39:16;6.07;;;3.50;;
36475;SDS011;56615;42.682;23.364;2022-09-13T00:41:42;5.20;;;3.50;;
36475;SDS011;56615;42.682;23.364;2022-09-13T00:47:40;5.88;;;3.63;;
36475;SDS011;56615;42.682;23.364;2022-09-13T00:52:57;7.82;;;3.38;;
36475;SDS011;56615;42.682;23.364;2022-09-13T00:55:26;6.32;;;3.67;;
36475;SDS011;56615;42.682;23.364;2022-09-13T00:57:57;7.72;;;3.97;;
36475;SDS011;56615;42.682;23.364;2022-09-13T01:00:24;6.20;;;3.72;;
36475;SDS011;56615;42.682;23.364;2022-09-13T01:02:51;6.47;;;3.40;;
36475;SDS011;56615;42.682;23.364;2022-09-13T01:05:22;8.70;;;4.22;;
36475;SDS011;56615;42.682;23.364;2022-09-13T01:10:17;6.68;;;3.55;;
36475;SDS011;56615;42.682;23.364;2022-09-13T01:12:57;7.03;;;3.70;;
36475;SDS011;56615;42.682;23.364;2022-09-13T01:15:30;7.35;;;3.53;;
36475;SDS011;56615;42.682;23.364;2022-09-13T01:17:55;8.20;;;3.83;;
36475;SDS011;56615;42.682;23.364;2022-09-13T01:20:24;9.70;;;4.28;;
36475;SDS011;56615;42.682;23.364;2022-09-13T01:26:12;8.52;;;3.50;;
36475;SDS011;56615;42.682;23.364;2022-09-13T01:31:41;7.43;;;3.45;;
36475;SDS011;56615;42.682;23.364;2022-09-13T01:50:41;6.75;;;3.42;;
36475;SDS011;56615;42.682;23.364;2022-09-13T01:55:58;5.95;;;3.60;;
36475;SDS011;56615;42.682;23.364;2022-09-13T01:58:45;6.03;;;3.88;;
36475;SDS011;56615;42.682;23.364;2022-09-13T02:01:34;5.72;;;3.60;;
36475;SDS011;56615;42.682;23.364;2022-09-13T02:04:10;5.78;;;3.58;;
36475;SDS011;56615;42.682;23.364;2022-09-13T02:09:20;5.68;;;3.80;;
36475;SDS011;56615;42.682;23.364;2022-09-13T02:11:49;7.43;;;3.85;;
36475;SDS011;56615;42.682;23.364;2022-09-13T02:14:24;7.38;;;3.67;;
36475;SDS011;56615;42.682;23.364;2022-09-13T02:16:58;7.32;;;4.00;;
36475;SDS011;56615;42.682;23.364;2022-09-13T02:19:30;6.40;;;3.63;;
36475;SDS011;56615;42.682;23.364;2022-09-13T02:22:00;8.10;;;4.30;;
36475;SDS011;56615;42.682;23.364;2022-09-13T02:24:47;7.55;;;4.10;;
36475;SDS011;56615;42.682;23.364;2022-09-13T02:27:15;6.70;;;3.90;;
36475;SDS011;56615;42.682;23.364;2022-09-13T02:29:44;7.93;;;4.20;;
36475;SDS011;56615;42.682;23.364;2022-09-13T02:32:20;6.50;;;3.75;;
36475;SDS011;56615;42.682;23.364;2022-09-13T02:34:52;5.97;;;3.80;;
36475;SDS011;56615;42.682;23.364;2022-09-13T02:37:19;5.82;;;3.72;;
36475;SDS011;56615;42.682;23.364;2022-09-13T02:39:49;9.00;;;4.20;;
36475;SDS011;56615;42.682;23.364;2022-09-13T02:42:20;5.78;;;3.80;;
36475;SDS011;56615;42.682;23.364;2022-09-13T02:44:49;8.82;;;3.80;;
36475;SDS011;56615;42.682;23.364;2022-09-13T02:55:43;6.88;;;4.10;;
36475;SDS011;56615;42.682;23.364;2022-09-13T02:58:36;7.72;;;4.13;;
36475;SDS011;56615;42.682;23.364;2022-09-13T03:01:32;8.68;;;4.15;;
36475;SDS011;56615;42.682;23.364;2022-09-13T03:04:03;9.75;;;4.13;;
36475;SDS011;56615;42.682;23.364;2022-09-13T03:06:29;7.57;;;3.88;;
36475;SDS011;56615;42.682;23.364;2022-09-13T03:08:55;6.97;;;3.83;;
36475;SDS011;56615;42.682;23.364;2022-09-13T03:19:28;7.68;;;3.80;;
36475;SDS011;56615;42.682;23.364;2022-09-13T03:22:35;6.55;;;3.67;;
36475;SDS011;56615;42.682;23.364;2022-09-13T03:30:12;6.80;;;3.95;;
36475;SDS011;56615;42.682;23.364;2022-09-13T03:35:28;6.72;;;4.15;;
36475;SDS011;56615;42.682;23.364;2022-09-13T03:40:55;5.88;;;3.80;;
36475;SDS011;56615;42.682;23.364;2022-09-13T03:43:39;7.00;;;3.90;;
36475;SDS011;56615;42.682;23.364;2022-09-13T03:46:09;6.88;;;3.92;;
36475;SDS011;56615;42.682;23.364;2022-09-13T03:48:39;6.33;;;3.90;;
36475;SDS011;56615;42.682;23.364;2022-09-13T03:51:05;7.65;;;3.92;;
36475;SDS011;56615;42.682;23.364;2022-09-13T03:53:32;6.70;;;3.83;;
36475;SDS011;56615;42.682;23.364;2022-09-13T03:56:15;8.23;;;3.97;;
36475;SDS011;56615;42.682;23.364;2022-09-13T03:58:41;6.70;;;3.70;;
36475;SDS011;56615;42.682;23.364;2022-09-13T04:01:07;8.85;;;4.05;;
36475;SDS011;56615;42.682;23.364;2022-09-13T04:03:34;7.82;;;4.22;;
36475;SDS011;56615;42.682;23.364;2022-09-13T04:06:03;7.15;;;3.92;;
36475;SDS011;56615;42.682;23.364;2022-09-13T04:08:29;8.70;;;4.20;;
36475;SDS011;56615;42.682;23.364;2022-09-13T04:10:55;11.02;;;4.40;;
36475;SDS011;56615;42.682;23.364;2022-09-13T04:13:21;6.95;;;3.95;;
36475;SDS011;56615;42.682;23.364;2022-09-13T04:15:47;8.95;;;4.30;;
36475;SDS011;56615;42.682;23.364;2022-09-13T04:18:14;8.85;;;3.90;;
36475;SDS011;56615;42.682;23.364;2022-09-13T04:20:40;7.57;;;4.00;;
36475;SDS011;56615;42.682;23.364;2022-09-13T04:23:05;7.20;;;4.18;;
36475;SDS011;56615;42.682;23.364;2022-09-13T04:25:30;8.80;;;3.75;;
36475;SDS011;56615;42.682;23.364;2022-09-13T04:27:56;9.20;;;3.75;;
36475;SDS011;56615;42.682;23.364;2022-09-13T04:30:25;9.23;;;4.10;;
36475;SDS011;56615;42.682;23.364;2022-09-13T04:32:52;6.47;;;3.90;;
36475;SDS011;56615;42.682;23.364;2022-09-13T04:35:39;6.90;;;3.85;;
36475;SDS011;56615;42.682;23.364;2022-09-13T04:38:05;6.22;;;3.83;;
36475;SDS011;56615;42.682;23.364;2022-09-13T04:40:31;7.05;;;4.03;;
36475;SDS011;56615;42.682;23.364;2022-09-13T04:42:59;7.35;;;3.65;;
36475;SDS011;56615;42.682;23.364;2022-09-13T04:45:24;7.00;;;3.85;;
36475;SDS011;56615;42.682;23.364;2022-09-13T04:47:54;9.75;;;4.40;;
36475;SDS011;56615;42.682;23.364;2022-09-13T04:50:20;6.78;;;3.70;;
36475;SDS011;56615;42.682;23.364;2022-09-13T04:52:46;9.18;;;3.58;;
36475;SDS011;56615;42.682;23.364;2022-09-13T04:55:12;6.75;;;3.72;;
36475;SDS011;56615;42.682;23.364;2022-09-13T04:57:40;9.23;;;3.70;;
36475;SDS011;56615;42.682;23.364;2022-09-13T05:00:12;6.13;;;3.63;;
36475;SDS011;56615;42.682;23.364;2022-09-13T05:02:38;7.20;;;3.35;;
36475;SDS011;56615;42.682;23.364;2022-09-13T05:05:03;7.50;;;3.35;;
36475;SDS011;56615;42.682;23.364;2022-09-13T05:07:29;7.47;;;3.35;;
36475;SDS011;56615;42.682;23.364;2022-09-13T05:09:54;9.05;;;3.60;;
36475;SDS011;56615;42.682;23.364;2022-09-13T05:12:23;7.22;;;3.38;;
36475;SDS011;56615;42.682;23.364;2022-09-13T05:14:50;6.55;;;3.22;;
36475;SDS011;56615;42.682;23.364;2022-09-13T05:17:16;7.43;;;3.45;;
36475;SDS011;56615;42.682;23.364;2022-09-13T05:19:42;7.60;;;3.40;;
36475;SDS011;56615;42.682;23.364;2022-09-13T05:22:07;8.95;;;3.85;;
36475;SDS011;56615;42.682;23.364;2022-09-13T05:24:38;9.93;;;3.60;;
36475;SDS011;56615;42.682;23.364;2022-09-13T05:27:09;8.38;;;3.30;;
36475;SDS011;56615;42.682;23.364;2022-09-13T05:29:35;8.43;;;3.05;;
36475;SDS011;56615;42.682;23.364;2022-09-13T05:32:00;10.13;;;3.40;;
36475;SDS011;56615;42.682;23.364;2022-09-13T05:34:26;7.07;;;3.22;;
36475;SDS011;56615;42.682;23.364;2022-09-13T05:36:51;7.28;;;2.70;;
36475;SDS011;56615;42.682;23.364;2022-09-13T05:39:17;7.85;;;2.92;;
36475;SDS011;56615;42.682;23.364;2022-09-13T05:41:43;5.05;;;2.75;;
36475;SDS011;56615;42.682;23.364;2022-09-13T05:44:09;5.57;;;3.05;;
36475;SDS011;56615;42.682;23.364;2022-09-13T05:46:34;6.70;;;2.80;;
36475;SDS011;56615;42.682;23.364;2022-09-13T05:49:00;6.50;;;2.80;;
36475;SDS011;56615;42.682;23.364;2022-09-13T05:51:25;9.23;;;2.88;;
36475;SDS011;56615;42.682;23.364;2022-09-13T05:53:52;14.05;;;3.10;;
36475;SDS011;56615;42.682;23.364;2022-09-13T05:56:19;10.45;;;2.78;;
36475;SDS011;56615;42.682;23.364;2022-09-13T05:58:49;4.13;;;2.33;;
36475;SDS011;56615;42.682;23.364;2022-09-13T06:01:16;5.70;;;2.67;;
36475;SDS011;56615;42.682;23.364;2022-09-13T06:03:48;7.60;;;2.50;;
36475;SDS011;56615;42.682;23.364;2022-09-13T06:06:21;6.10;;;2.60;;
36475;SDS011;56615;42.682;23.364;2022-09-13T06:08:46;8.27;;;2.70;;
36475;SDS011;56615;42.682;23.364;2022-09-13T06:11:13;5.63;;;3.00;;
36475;SDS011;56615;42.682;23.364;2022-09-13T06:13:39;5.28;;;2.38;;
36475;SDS011;56615;42.682;23.364;2022-09-13T06:16:05;6.53;;;2.55;;
36475;SDS011;56615;42.682;23.364;2022-09-13T06:18:32;4.50;;;2.30;;
36475;SDS011;56615;42.682;23.364;2022-09-13T06:21:02;6.85;;;2.30;;
36475;SDS011;56615;42.682;23.364;2022-09-13T06:23:30;6.75;;;2.90;;
36475;SDS011;56615;42.682;23.364;2022-09-13T06:26:05;5.85;;;2.45;;
36475;SDS011;56615;42.682;23.364;2022-09-13T06:28:34;6.35;;;2.70;;
36475;SDS011;56615;42.682;23.364;2022-09-13T06:31:04;5.95;;;2.72;;
36475;SDS011;56615;42.682;23.364;2022-09-13T06:33:37;4.63;;;2.55;;
36475;SDS011;56615;42.682;23.364;2022-09-13T06:36:14;4.57;;;2.60;;
36475;SDS011;56615;42.682;23.364;2022-09-13T06:39:04;5.28;;;2.63;;
36475;SDS011;56615;42.682;23.364;2022-09-13T06:41:30;4.78;;;2.80;;
36475;SDS011;56615;42.682;23.364;2022-09-13T06:43:57;5.40;;;2.60;;
36475;SDS011;56615;42.682;23.364;2022-09-13T06:46:23;5.90;;;2.72;;
36475;SDS011;56615;42.682;23.364;2022-09-13T06:48:50;8.25;;;2.60;;
36475;SDS011;56615;42.682;23.364;2022-09-13T06:51:17;4.93;;;2.47;;
36475;SDS011;56615;42.682;23.364;2022-09-13T06:53:46;6.20;;;2.80;;
36475;SDS011;56615;42.682;23.364;2022-09-13T06:56:16;5.72;;;2.58;;
36475;SDS011;56615;42.682;23.364;2022-09-13T06:58:56;4.88;;;2.65;;
36475;SDS011;56615;42.682;23.364;2022-09-13T07:01:23;7.22;;;2.45;;
36475;SDS011;56615;42.682;23.364;2022-09-13T07:03:54;8.73;;;2.65;;
36475;SDS011;56615;42.682;23.364;2022-09-13T07:06:24;4.93;;;2.33;;
36475;SDS011;56615;42.682;23.364;2022-09-13T07:08:52;7.30;;;2.88;;
36475;SDS011;56615;42.682;23.364;2022-09-13T07:11:18;5.55;;;2.72;;
36475;SDS011;56615;42.682;23.364;2022-09-13T07:13:55;5.18;;;2.92;;
36475;SDS011;56615;42.682;23.364;2022-09-13T07:16:25;9.07;;;2.50;;
36475;SDS011;56615;42.682;23.364;2022-09-13T07:21:18;5.50;;;2.45;;
36475;SDS011;56615;42.682;23.364;2022-09-13T07:23:45;3.40;;;2.30;;
36475;SDS011;56615;42.682;23.364;2022-09-13T07:26:10;6.85;;;2.45;;
36475;SDS011;56615;42.682;23.364;2022-09-13T07:28:36;5.80;;;2.67;;
36475;SDS011;56615;42.682;23.364;2022-09-13T07:31:04;4.43;;;2.10;;
36475;SDS011;56615;42.682;23.364;2022-09-13T07:33:40;5.05;;;2.40;;
36475;SDS011;56615;42.682;23.364;2022-09-13T07:36:06;7.15;;;2.80;;
36475;SDS011;56615;42.682;23.364;2022-09-13T07:38:36;10.93;;;2.47;;
36475;SDS011;56615;42.682;23.364;2022-09-13T07:41:05;4.97;;;2.60;;
36475;SDS011;56615;42.682;23.364;2022-09-13T07:43:33;7.05;;;2.72;;
36475;SDS011;56615;42.682;23.364;2022-09-13T07:46:00;3.90;;;2.40;;
36475;SDS011;56615;42.682;23.364;2022-09-13T07:48:27;7.47;;;2.50;;
36475;SDS011;56615;42.682;23.364;2022-09-13T07:53:26;5.22;;;2.42;;
36475;SDS011;56615;42.682;23.364;2022-09-13T07:55:52;6.00;;;2.55;;
36475;SDS011;56615;42.682;23.364;2022-09-13T07:58:17;6.10;;;2.63;;
36475;SDS011;56615;42.682;23.364;2022-09-13T08:00:43;6.05;;;2.33;;
36475;SDS011;56615;42.682;23.364;2022-09-13T08:03:09;6.18;;;2.05;;
36475;SDS011;56615;42.682;23.364;2022-09-13T08:05:44;6.70;;;2.10;;
36475;SDS011;56615;42.682;23.364;2022-09-13T08:08:10;6.72;;;2.53;;
36475;SDS011;56615;42.682;23.364;2022-09-13T08:10:36;4.78;;;2.20;;
36475;SDS011;56615;42.682;23.364;2022-09-13T08:13:02;4.57;;;1.92;;
36475;SDS011;56615;42.682;23.364;2022-09-13T08:18:15;4.18;;;1.88;;
36475;SDS011;56615;42.682;23.364;2022-09-13T08:20:41;3.22;;;2.05;;
36475;SDS011;56615;42.682;23.364;2022-09-13T08:23:06;4.32;;;2.10;;
36475;SDS011;56615;42.682;23.364;2022-09-13T08:25:32;6.80;;;2.30;;
36475;SDS011;56615;42.682;23.364;2022-09-13T08:27:59;9.63;;;2.30;;
36475;SDS011;56615;42.682;23.364;2022-09-13T08:30:26;4.72;;;2.28;;
36475;SDS011;56615;42.682;23.364;2022-09-13T08:35:23;3.40;;;1.90;;
36475;SDS011;56615;42.682;23.364;2022-09-13T08:37:48;5.03;;;2.00;;
36475;SDS011;56615;42.682;23.364;2022-09-13T08:40:14;5.28;;;1.90;;
36475;SDS011;56615;42.682;23.364;2022-09-13T08:45:20;4.13;;;2.38;;
36475;SDS011;56615;42.682;23.364;2022-09-13T08:47:49;5.97;;;2.10;;
36475;SDS011;56615;42.682;23.364;2022-09-13T08:50:26;4.68;;;2.60;;
36475;SDS011;56615;42.682;23.364;2022-09-13T08:52:58;2.47;;;1.80;;
36475;SDS011;56615;42.682;23.364;2022-09-13T09:04:21;3.58;;;1.70;;
36475;SDS011;56615;42.682;23.364;2022-09-13T09:07:04;3.92;;;1.92;;
36475;SDS011;56615;42.682;23.364;2022-09-13T09:09:36;3.10;;;1.83;;
36475;SDS011;56615;42.682;23.364;2022-09-13T09:15:04;3.20;;;1.67;;
36475;SDS011;56615;42.682;23.364;2022-09-13T09:17:42;3.25;;;1.75;;
36475;SDS011;56615;42.682;23.364;2022-09-13T09:22:47;3.67;;;1.95;;
36475;SDS011;56615;42.682;23.364;2022-09-13T09:25:14;2.92;;;1.90;;
36475;SDS011;56615;42.682;23.364;2022-09-13T09:27:39;3.38;;;2.00;;
36475;SDS011;56615;42.682;23.364;2022-09-13T09:30:05;2.35;;;1.63;;
36475;SDS011;56615;42.682;23.364;2022-09-13T09:35:30;4.85;;;2.40;;
36475;SDS011;56615;42.682;23.364;2022-09-13T09:41:03;4.20;;;2.22;;
36475;SDS011;56615;42.682;23.364;2022-09-13T09:43:36;6.05;;;2.42;;
36475;SDS011;56615;42.682;23.364;2022-09-13T09:46:04;7.38;;;2.33;;
36475;SDS011;56615;42.682;23.364;2022-09-13T09:48:35;3.88;;;1.90;;
36475;SDS011;56615;42.682;23.364;2022-09-13T09:51:04;4.50;;;1.80;;
36475;SDS011;56615;42.682;23.364;2022-09-13T09:53:32;2.63;;;1.50;;
36475;SDS011;56615;42.682;23.364;2022-09-13T09:58:47;4.20;;;1.90;;
36475;SDS011;56615;42.682;23.364;2022-09-13T10:01:26;3.35;;;1.95;;
36475;SDS011;56615;42.682;23.364;2022-09-13T10:03:57;3.97;;;2.05;;
36475;SDS011;56615;42.682;23.364;2022-09-13T10:06:27;6.68;;;3.00;;
36475;SDS011;56615;42.682;23.364;2022-09-13T10:11:20;4.65;;;2.00;;
36475;SDS011;56615;42.682;23.364;2022-09-13T10:13:56;5.18;;;2.00;;
36475;SDS011;56615;42.682;23.364;2022-09-13T10:16:29;5.13;;;2.30;;
36475;SDS011;56615;42.682;23.364;2022-09-13T10:22:04;10.45;;;4.20;;
36475;SDS011;56615;42.682;23.364;2022-09-13T10:24:31;3.67;;;2.50;;
36475;SDS011;56615;42.682;23.364;2022-09-13T10:26:57;3.38;;;2.30;;
36475;SDS011;56615;42.682;23.364;2022-09-13T10:29:23;3.10;;;2.00;;
36475;SDS011;56615;42.682;23.364;2022-09-13T10:31:51;3.97;;;1.92;;
36475;SDS011;56615;42.682;23.364;2022-09-13T10:34:24;3.33;;;2.17;;
36475;SDS011;56615;42.682;23.364;2022-09-13T10:39:20;6.00;;;2.90;;
36475;SDS011;56615;42.682;23.364;2022-09-13T10:41:51;5.63;;;2.78;;
36475;SDS011;56615;42.682;23.364;2022-09-13T10:47:04;7.90;;;2.28;;
36475;SDS011;56615;42.682;23.364;2022-09-13T10:49:38;5.65;;;2.38;;
36475;SDS011;56615;42.682;23.364;2022-09-13T10:54:53;6.57;;;3.40;;
36475;SDS011;56615;42.682;23.364;2022-09-13T10:57:54;5.72;;;3.08;;
36475;SDS011;56615;42.682;23.364;2022-09-13T11:00:12;5.95;;;2.75;;
36475;SDS011;56615;42.682;23.364;2022-09-13T11:22:16;2.40;;;1.92;;
36475;SDS011;56615;42.682;23.364;2022-09-13T11:43:33;3.15;;;1.80;;
36475;SDS011;56615;42.682;23.364;2022-09-13T11:52:14;5.13;;;1.90;;
36475;SDS011;56615;42.682;23.364;2022-09-13T11:55:05;5.85;;;2.13;;
36475;SDS011;56615;42.682;23.364;2022-09-13T11:57:41;4.65;;;1.80;;
36475;SDS011;56615;42.682;23.364;2022-09-13T12:00:23;2.97;;;1.77;;
36475;SDS011;56615;42.682;23.364;2022-09-13T12:08:21;3.15;;;1.83;;
36475;SDS011;56615;42.682;23.364;2022-09-13T12:10:58;5.18;;;1.95;;
36475;SDS011;56615;42.682;23.364;2022-09-13T12:13:34;2.28;;;1.77;;
36475;SDS011;56615;42.682;23.364;2022-09-13T12:16:08;6.60;;;2.15;;
36475;SDS011;56615;42.682;23.364;2022-09-13T12:18:41;4.07;;;2.13;;
36475;SDS011;56615;42.682;23.364;2022-09-13T12:21:10;3.67;;;2.05;;
36475;SDS011;56615;42.682;23.364;2022-09-13T12:31:55;3.88;;;2.00;;
36475;SDS011;56615;42.682;23.364;2022-09-13T12:34:25;3.92;;;1.90;;
36475;SDS011;56615;42.682;23.364;2022-09-13T12:37:20;5.22;;;1.67;;
36475;SDS011;56615;42.682;23.364;2022-09-13T12:45:53;5.72;;;1.92;;
36475;SDS011;56615;42.682;23.364;2022-09-13T12:56:42;3.63;;;1.95;;
36475;SDS011;56615;42.682;23.364;2022-09-13T13:01:45;4.85;;;1.77;;
36475;SDS011;56615;42.682;23.364;2022-09-13T13:04:14;2.00;;;1.67;;
36475;SDS011;56615;42.682;23.364;2022-09-13T13:06:58;4.95;;;1.80;;
36475;SDS011;56615;42.682;23.364;2022-09-13T13:12:05;2.15;;;1.70;;
36475;SDS011;56615;42.682;23.364;2022-09-13T13:31:08;3.23;;;2.03;;
36475;SDS011;56615;42.682;23.364;2022-09-13T13:39:03;3.67;;;2.10;;
36475;SDS011;56615;42.682;23.364;2022-09-13T13:43:58;3.53;;;1.90;;
36475;SDS011;56615;42.682;23.364;2022-09-13T13:48:55;3.28;;;2.10;;
36475;SDS011;56615;42.682;23.364;2022-09-13T13:51:22;2.80;;;2.00;;
36475;SDS011;56615;42.682;23.364;2022-09-13T13:53:57;3.75;;;2.03;;
36475;SDS011;56615;42.682;23.364;2022-09-13T13:56:47;7.40;;;3.38;;
36475;SDS011;56615;42.682;23.364;2022-09-13T13:59:26;3.67;;;2.08;;
36475;SDS011;56615;42.682;23.364;2022-09-13T14:01:55;5.78;;;2.53;;
36475;SDS011;56615;42.682;23.364;2022-09-13T14:04:38;3.28;;;2.28;;
36475;SDS011;56615;42.682;23.364;2022-09-13T14:15:47;3.80;;;2.22;;
36475;SDS011;56615;42.682;23.364;2022-09-13T14:21:32;5.30;;;2.05;;
36475;SDS011;56615;42.682;23.364;2022-09-13T14:24:21;3.78;;;2.17;;
36475;SDS011;56615;42.682;23.364;2022-09-13T14:26:49;2.53;;;1.80;;
36475;SDS011;56615;42.682;23.364;2022-09-13T14:29:18;4.88;;;2.08;;
36475;SDS011;56615;42.682;23.364;2022-09-13T14:31:46;2.53;;;2.15;;
36475;SDS011;56615;42.682;23.364;2022-09-13T14:34:32;2.92;;;1.90;;
36475;SDS011;56615;42.682;23.364;2022-09-13T14:37:03;6.63;;;2.10;;
36475;SDS011;56615;42.682;23.364;2022-09-13T14:39:31;3.53;;;2.10;;
36475;SDS011;56615;42.682;23.364;2022-09-13T14:42:01;3.45;;;2.08;;
36475;SDS011;56615;42.682;23.364;2022-09-13T14:44:43;3.40;;;2.35;;
36475;SDS011;56615;42.682;23.364;2022-09-13T14:47:15;5.57;;;2.65;;
36475;SDS011;56615;42.682;23.364;2022-09-13T14:49:52;4.07;;;2.22;;
36475;SDS011;56615;42.682;23.364;2022-09-13T14:52:32;4.65;;;2.30;;
36475;SDS011;56615;42.682;23.364;2022-09-13T14:55:06;4.50;;;2.70;;
36475;SDS011;56615;42.682;23.364;2022-09-13T14:57:36;4.07;;;2.25;;
36475;SDS011;56615;42.682;23.364;2022-09-13T15:00:05;3.58;;;2.20;;
36475;SDS011;56615;42.682;23.364;2022-09-13T15:02:35;6.25;;;3.10;;
36475;SDS011;56615;42.682;23.364;2022-09-13T15:05:04;7.25;;;3.85;;
36475;SDS011;56615;42.682;23.364;2022-09-13T15:07:36;4.32;;;2.50;;
36475;SDS011;56615;42.682;23.364;2022-09-13T15:10:07;5.88;;;2.42;;
36475;SDS011;56615;42.682;23.364;2022-09-13T15:12:37;4.43;;;2.65;;
36475;SDS011;56615;42.682;23.364;2022-09-13T15:17:58;5.20;;;2.30;;
36475;SDS011;56615;42.682;23.364;2022-09-13T15:23:32;4.95;;;2.33;;
36475;SDS011;56615;42.682;23.364;2022-09-13T15:28:26;7.25;;;2.90;;
36475;SDS011;56615;42.682;23.364;2022-09-13T15:30:53;6.40;;;2.30;;
36475;SDS011;56615;42.682;23.364;2022-09-13T15:33:24;7.32;;;2.42;;
36475;SDS011;56615;42.682;23.364;2022-09-13T15:35:51;3.88;;;2.60;;
36475;SDS011;56615;42.682;23.364;2022-09-13T15:38:23;4.20;;;2.60;;
36475;SDS011;56615;42.682;23.364;2022-09-13T15:43:27;4.28;;;2.45;;
36475;SDS011;56615;42.682;23.364;2022-09-13T15:45:52;4.15;;;2.35;;
36475;SDS011;56615;42.682;23.364;2022-09-13T15:48:21;3.63;;;2.60;;
36475;SDS011;56615;42.682;23.364;2022-09-13T15:51:02;4.90;;;2.40;;
36475;SDS011;56615;42.682;23.364;2022-09-13T15:53:33;3.95;;;2.30;;
36475;SDS011;56615;42.682;23.364;2022-09-13T15:55:59;5.00;;;2.20;;
36475;SDS011;56615;42.682;23.364;2022-09-13T15:58:26;5.90;;;2.30;;
36475;SDS011;56615;42.682;23.364;2022-09-13T16:00:51;6.40;;;2.50;;
36475;SDS011;56615;42.682;23.364;2022-09-13T16:06:02;4.75;;;2.80;;
36475;SDS011;56615;42.682;23.364;2022-09-13T16:08:28;4.80;;;2.80;;
36475;SDS011;56615;42.682;23.364;2022-09-13T16:10:53;6.18;;;3.50;;
36475;SDS011;56615;42.682;23.364;2022-09-13T16:13:19;5.78;;;3.30;;
36475;SDS011;56615;42.682;23.364;2022-09-13T16:15:44;6.75;;;3.67;;
36475;SDS011;56615;42.682;23.364;2022-09-13T16:18:10;6.50;;;3.05;;
36475;SDS011;56615;42.682;23.364;2022-09-13T16:20:40;6.07;;;2.72;;
36475;SDS011;56615;42.682;23.364;2022-09-13T16:23:06;5.57;;;2.88;;
36475;SDS011;56615;42.682;23.364;2022-09-13T16:25:32;6.43;;;2.90;;
36475;SDS011;56615;42.682;23.364;2022-09-13T16:27:59;5.28;;;3.03;;
36475;SDS011;56615;42.682;23.364;2022-09-13T16:30:24;7.72;;;3.15;;
36475;SDS011;56615;42.682;23.364;2022-09-13T16:32:51;10.52;;;4.97;;
36475;SDS011;56615;42.682;23.364;2022-09-13T16:35:17;7.72;;;3.22;;
36475;SDS011;56615;42.682;23.364;2022-09-13T16:37:43;5.72;;;3.55;;
36475;SDS011;56615;42.682;23.364;2022-09-13T16:40:09;8.35;;;3.60;;
36475;SDS011;56615;42.682;23.364;2022-09-13T16:42:35;4.60;;;2.97;;
36475;SDS011;56615;42.682;23.364;2022-09-13T16:45:01;6.03;;;3.28;;
36475;SDS011;56615;42.682;23.364;2022-09-13T16:47:26;8.80;;;3.70;;
36475;SDS011;56615;42.682;23.364;2022-09-13T16:49:52;5.22;;;3.25;;
36475;SDS011;56615;42.682;23.364;2022-09-13T16:52:17;6.00;;;3.30;;
36475;SDS011;56615;42.682;23.364;2022-09-13T16:54:43;11.35;;;3.95;;
36475;SDS011;56615;42.682;23.364;2022-09-13T16:57:10;7.05;;;3.47;;
36475;SDS011;56615;42.682;23.364;2022-09-13T16:59:38;7.07;;;3.95;;
36475;SDS011;56615;42.682;23.364;2022-09-13T17:02:06;8.52;;;4.10;;
36475;SDS011;56615;42.682;23.364;2022-09-13T17:04:33;10.10;;;4.15;;
36475;SDS011;56615;42.682;23.364;2022-09-13T17:06:59;9.90;;;3.95;;
36475;SDS011;56615;42.682;23.364;2022-09-13T17:09:26;13.52;;;8.85;;
36475;SDS011;56615;42.682;23.364;2022-09-13T17:11:52;16.27;;;9.98;;
36475;SDS011;56615;42.682;23.364;2022-09-13T17:14:18;9.30;;;4.65;;
36475;SDS011;56615;42.682;23.364;2022-09-13T17:16:47;8.43;;;3.88;;
36475;SDS011;56615;42.682;23.364;2022-09-13T17:19:17;8.95;;;3.92;;
36475;SDS011;56615;42.682;23.364;2022-09-13T17:21:44;8.25;;;4.30;;
36475;SDS011;56615;42.682;23.364;2022-09-13T17:24:10;7.82;;;3.33;;
36475;SDS011;56615;42.682;23.364;2022-09-13T17:26:36;7.47;;;3.78;;
36475;SDS011;56615;42.682;23.364;2022-09-13T17:29:01;8.52;;;3.72;;
36475;SDS011;56615;42.682;23.364;2022-09-13T17:31:26;13.65;;;7.22;;
36475;SDS011;56615;42.682;23.364;2022-09-13T17:33:52;23.58;;;15.32;;
36475;SDS011;56615;42.682;23.364;2022-09-13T17:36:18;16.20;;;9.23;;
36475;SDS011;56615;42.682;23.364;2022-09-13T17:38:46;12.43;;;7.80;;
36475;SDS011;56615;42.682;23.364;2022-09-13T17:41:16;12.23;;;6.53;;
36475;SDS011;56615;42.682;23.364;2022-09-13T17:43:43;11.23;;;5.38;;
36475;SDS011;56615;42.682;23.364;2022-09-13T17:46:10;10.25;;;5.20;;
36475;SDS011;56615;42.682;23.364;2022-09-13T17:48:40;8.73;;;4.95;;
36475;SDS011;56615;42.682;23.364;2022-09-13T17:51:07;10.57;;;5.13;;
36475;SDS011;56615;42.682;23.364;2022-09-13T17:53:36;9.20;;;4.57;;
36475;SDS011;56615;42.682;23.364;2022-09-13T17:56:03;6.47;;;4.05;;
36475;SDS011;56615;42.682;23.364;2022-09-13T17:58:29;8.73;;;4.13;;
36475;SDS011;56615;42.682;23.364;2022-09-13T18:01:07;9.10;;;4.32;;
36475;SDS011;56615;42.682;23.364;2022-09-13T18:03:43;8.35;;;4.38;;
36475;SDS011;56615;42.682;23.364;2022-09-13T18:06:10;6.65;;;4.35;;
36475;SDS011;56615;42.682;23.364;2022-09-13T18:08:36;7.55;;;4.03;;
36475;SDS011;56615;42.682;23.364;2022-09-13T18:11:07;8.70;;;4.40;;
36475;SDS011;56615;42.682;23.364;2022-09-13T18:13:51;9.63;;;4.40;;
36475;SDS011;56615;42.682;23.364;2022-09-13T18:16:20;8.20;;;4.57;;
36475;SDS011;56615;42.682;23.364;2022-09-13T18:18:48;8.30;;;4.40;;
36475;SDS011;56615;42.682;23.364;2022-09-13T18:21:14;8.18;;;4.32;;
36475;SDS011;56615;42.682;23.364;2022-09-13T18:23:44;11.05;;;4.50;;
36475;SDS011;56615;42.682;23.364;2022-09-13T18:26:11;9.75;;;4.45;;
36475;SDS011;56615;42.682;23.364;2022-09-13T18:28:38;7.72;;;3.95;;
36475;SDS011;56615;42.682;23.364;2022-09-13T18:31:14;8.43;;;4.60;;
36475;SDS011;56615;42.682;23.364;2022-09-13T18:33:41;8.40;;;4.85;;
36475;SDS011;56615;42.682;23.364;2022-09-13T18:36:08;10.73;;;4.25;;
36475;SDS011;56615;42.682;23.364;2022-09-13T18:38:36;11.40;;;4.53;;
36475;SDS011;56615;42.682;23.364;2022-09-13T18:43:36;8.52;;;4.07;;
36475;SDS011;56615;42.682;23.364;2022-09-13T18:46:04;7.80;;;4.10;;
36475;SDS011;56615;42.682;23.364;2022-09-13T18:48:34;7.43;;;4.25;;
36475;SDS011;56615;42.682;23.364;2022-09-13T18:51:03;9.90;;;5.00;;
36475;SDS011;56615;42.682;23.364;2022-09-13T18:53:32;11.07;;;5.32;;